Time;durP1;ratioP1;P1;durP2;ratioP2;P2;SDS_P1;SDS_P2;PMS_P1;PMS_P2;Temp;Humidity;BMP_temperature;BMP_pressure;BME280_temperature;BME280_humidity;BME280_pressure;Samples;Min_cycle;Max_cycle;Signal;HPM_P1;HPM_P2
2022/11/23 09:06:27;;;;;;;58.60;25.60;;;;;;;10.54;59.56;99747.34;629505;1344;546193;-82
2022/11/23 09:21:34;;;;;;;54.40;20.90;;;;;;;2.17;66.30;99763.31;638873;1307;137668;-83
2022/11/23 09:36:38;;;;;;;88.50;28.80;;;;;;;1.29;74.07;99751.23;641016;1322;137597;-85
2022/11/23 09:51:43;;;;;;;125.20;38.10;;;;;;;1.15;80.48;99745.84;643238;1315;137753;-83
2022/11/23 10:06:56;;;;;;;115.80;37.20;;;;;;;1.17;83.56;99740.55;639405;1309;138523;-83
2022/11/23 10:22:12;;;;;;;62.80;21.00;;;;;;;1.85;85.86;99746.61;639603;1316;138205;-79
2022/11/23 10:37:17;;;;;;;135.50;51.40;;;;;;;1.62;87.16;99744.17;638942;1308;138169;-81
2022/11/23 10:52:49;;;;;;;447.10;156.10;;;;;;;1.42;89.72;99739.98;640219;1299;138343;-78
2022/11/23 11:07:59;;;;;;;139.50;45.50;;;;;;;1.48;89.49;99733.04;639267;1315;138556;-79
2022/11/23 11:23:19;;;;;;;92.30;28.00;;;;;;;1.48;90.58;99718.97;638768;1300;138231;-77
2022/11/23 11:38:31;;;;;;;87.80;27.50;;;;;;;1.47;91.07;99707.11;638999;1301;138260;-76
2022/11/23 11:53:57;;;;;;;90.20;27.70;;;;;;;1.56;90.98;99703.98;638707;1308;138664;-80
2022/11/23 12:09:17;;;;;;;110.00;41.00;;;;;;;1.57;90.40;99689.81;640105;1314;138265;-77
2022/11/23 12:24:49;;;;;;;95.20;33.60;;;;;;;1.65;90.53;99682.94;638525;1315;138656;-79
2022/11/23 12:40:13;;;;;;;326.40;98.20;;;;;;;1.50;91.40;99684.67;639803;1313;138283;-81
2022/11/23 12:55:47;;;;;;;134.70;51.40;;;;;;;1.50;91.67;99673.32;639186;1315;138419;-81
2022/11/23 13:11:13;;;;;;;177.80;61.30;;;;;;;1.52;92.67;99655.13;639462;1297;138678;-79
2022/11/23 13:26:19;;;;;;;167.60;54.50;;;;;;;1.64;92.08;99681.44;639505;1308;138626;-77
2022/11/23 13:41:38;;;;;;;137.10;43.10;;;;;;;1.52;91.83;99700.61;639031;1307;138662;-79
2022/11/23 13:56:43;;;;;;;278.30;93.50;;;;;;;1.52;91.51;99714.77;641523;1306;139119;-77
2022/11/23 14:24:00;;;;;;;121.20;43.00;;;;;;;1.66;92.64;99727.20;628021;1330;545093;-77
2022/11/23 14:39:17;;;;;;;98.00;38.10;;;;;;;1.51;92.27;99737.70;636862;1322;138504;-77
2022/11/23 14:54:20;;;;;;;164.00;57.20;;;;;;;1.48;92.50;99739.14;635759;1322;137938;-77
2022/11/23 15:10:04;;;;;;;126.80;52.90;;;;;;;1.56;92.56;99737.82;639253;1314;138589;-75
2022/11/23 15:25:12;;;;;;;104.40;34.90;;;;;;;1.49;91.41;99753.20;645558;1303;138632;-75
2022/11/23 15:40:17;;;;;;;108.30;38.90;;;;;;;1.46;93.16;99760.61;654389;1316;138473;-76
2022/11/23 15:55:22;;;;;;;95.80;41.60;;;;;;;1.52;92.85;99753.55;639407;1312;138507;-77
2022/11/23 16:10:28;;;;;;;102.80;41.60;;;;;;;1.49;92.85;99741.98;638946;1302;138484;-76
2022/11/23 16:25:33;;;;;;;153.30;49.60;;;;;;;1.45;92.42;99744.66;638348;1316;138322;-76
2022/11/23 16:40:42;;;;;;;80.90;28.40;;;;;;;1.42;92.39;99749.79;638471;1311;138363;-77
2022/11/23 16:55:52;;;;;;;121.20;44.00;;;;;;;1.41;92.03;99736.77;643328;1296;138619;-76
2022/11/23 17:10:55;;;;;;;139.40;46.20;;;;;;;1.40;92.05;99753.16;643700;1295;138750;-76
2022/11/23 17:25:59;;;;;;;229.30;91.40;;;;;;;1.39;91.86;99756.52;645025;1282;138504;-79
2022/11/23 17:41:03;;;;;;;135.40;47.70;;;;;;;1.50;92.72;99767.92;647984;1304;138752;-75
2022/11/23 17:56:15;;;;;;;85.90;36.80;;;;;;;1.56;91.89;99768.80;642373;1311;139584;-76
2022/11/23 18:11:20;;;;;;;123.30;42.50;;;;;;;1.42;92.03;99774.08;642606;1291;138747;-77
2022/11/23 18:26:25;;;;;;;100.40;37.20;;;;;;;1.18;92.40;99781.50;642879;1304;138508;-74
2022/11/23 18:41:29;;;;;;;86.50;37.20;;;;;;;1.29;91.84;99780.02;641667;1311;138531;-76
2022/11/23 18:56:33;;;;;;;84.50;29.90;;;;;;;1.30;91.58;99792.90;641555;1296;138838;-75
2022/11/23 19:11:37;;;;;;;152.90;61.70;;;;;;;1.24;91.69;99792.52;645931;1305;138514;-75
2022/11/23 19:26:40;;;;;;;99.50;38.90;;;;;;;1.10;91.57;99787.29;641606;1300;138493;-76
2022/11/23 19:41:44;;;;;;;59.90;24.00;;;;;;;0.91;91.76;99781.11;643787;1304;138770;-79
2022/11/23 19:56:49;;;;;;;72.10;24.10;;;;;;;0.79;90.97;99776.23;642413;1311;139587;-76
2022/11/23 20:11:53;;;;;;;192.90;56.10;;;;;;;0.87;92.00;99782.70;641678;1312;138609;-75
2022/11/23 20:26:57;;;;;;;107.10;35.50;;;;;;;0.94;91.69;99800.42;642784;1304;138719;-74
2022/11/23 20:42:01;;;;;;;96.50;33.90;;;;;;;0.66;91.77;99803.34;642666;1311;138673;-74
2022/11/23 20:57:05;;;;;;;91.90;34.90;;;;;;;0.68;92.08;99801.49;642501;1311;138501;-75
2022/11/23 21:27:32;;;;;;;101.80;39.30;;;;;;;0.66;93.03;99794.91;641802;1311;138923;-75
2022/11/23 21:42:35;;;;;;;66.00;23.50;;;;;;;0.82;93.71;99809.16;642394;1312;138921;-75
2022/11/23 21:57:38;;;;;;;94.20;35.00;;;;;;;0.77;93.08;99820.45;641698;1312;138415;-74
2022/11/23 22:12:42;;;;;;;69.90;23.50;;;;;;;0.96;92.57;99826.64;642935;1307;139224;-75
2022/11/23 22:27:45;;;;;;;124.10;37.80;;;;;;;0.85;92.21;99836.19;642890;1312;138553;-75
2022/11/23 22:42:49;;;;;;;82.70;28.70;;;;;;;0.77;92.79;99849.91;644007;1304;138597;-75
2022/11/23 22:57:52;;;;;;;100.90;29.50;;;;;;;0.78;92.40;99845.86;643878;1309;139141;-75
2022/11/23 23:12:56;;;;;;;95.00;30.80;;;;;;;0.50;92.85;99853.06;644490;1312;138757;-75
2022/11/23 23:27:59;;;;;;;92.70;28.50;;;;;;;0.38;92.98;99853.67;648830;1303;138685;-75
2022/11/23 23:43:03;;;;;;;122.50;33.00;;;;;;;0.40;93.94;99842.08;644274;1312;138867;-76
2022/11/23 23:58:06;;;;;;;145.20;38.20;;;;;;;0.37;94.19;99850.27;642309;1312;139118;-75
